Time;durP1;ratioP1;P1;durP2;ratioP2;P2;SDS_P1;SDS_P2;PMS_P1;PMS_P2;Temp;Humidity;BMP_temperature;BMP_pressure;BME280_temperature;BME280_humidity;BME280_pressure;Samples;Min_cycle;Max_cycle;Signal;HPM_P1;HPM_P2
2021/01/10 00:01:25;;;;;;;47.30;33.30;;;;;;;0.90;100.00;102010.06;6246821;22;20023;-84
2021/01/10 00:03:50;;;;;;;52.65;37.70;;;;;;;0.95;100.00;102007.19;6246726;22;20020;-85
2021/01/10 00:06:16;;;;;;;47.50;33.95;;;;;;;0.92;100.00;102012.63;6246975;22;20061;-85
2021/01/10 00:08:41;;;;;;;44.30;27.63;;;;;;;0.90;100.00;102010.06;6245973;22;20012;-84
2021/01/10 00:11:07;;;;;;;43.65;30.50;;;;;;;0.92;100.00;102015.25;6247170;22;20031;-85
2021/01/10 00:13:32;;;;;;;42.20;26.40;;;;;;;0.93;100.00;102017.00;6251746;22;20448;-85
2021/01/10 00:15:57;;;;;;;46.95;31.70;;;;;;;0.94;100.00;102016.06;6297181;22;20042;-85
2021/01/10 00:18:23;;;;;;;45.40;31.70;;;;;;;0.92;100.00;102024.03;6271718;22;20007;-84
2021/01/10 00:20:48;;;;;;;49.47;31.70;;;;;;;0.92;100.00;102018.75;6273214;22;20622;-84
2021/01/10 00:23:14;;;;;;;48.80;31.50;;;;;;;0.92;100.00;102018.75;6274194;22;20019;-84
2021/01/10 00:25:39;;;;;;;48.88;36.80;;;;;;;0.95;100.00;102021.28;6271427;22;20098;-85
2021/01/10 00:28:05;;;;;;;45.05;32.60;;;;;;;0.96;100.00;102017.69;6247144;22;20022;-84
2021/01/10 00:30:30;;;;;;;47.47;36.58;;;;;;;0.98;100.00;102017.63;6273659;22;20050;-85
2021/01/10 00:32:56;;;;;;;46.35;33.00;;;;;;;0.96;100.00;102007.13;6297957;22;20082;-85
2021/01/10 00:35:23;;;;;;;39.33;27.65;;;;;;;0.96;100.00;102012.41;6274276;22;20015;-85
2021/01/10 00:37:51;;;;;;;47.47;33.00;;;;;;;0.99;100.00;102016.72;6271802;22;20090;-84
2021/01/10 00:40:18;;;;;;;43.85;30.52;;;;;;;0.98;100.00;102010.56;6273093;22;20023;-84
2021/01/10 00:42:43;;;;;;;47.40;29.95;;;;;;;0.97;100.00;102022.06;6274630;22;20016;-84
2021/01/10 00:45:10;;;;;;;46.05;32.05;;;;;;;0.96;100.00;102020.34;6272608;22;20015;-85
2021/01/10 00:47:35;;;;;;;48.83;30.40;;;;;;;0.96;100.00;102020.34;6274375;22;20011;-85
2021/01/10 00:50:01;;;;;;;39.33;25.98;;;;;;;0.93;100.00;102022.28;6271637;22;20008;-85
2021/01/10 00:52:30;;;;;;;38.55;26.58;;;;;;;0.95;100.00;102021.28;6273783;22;20559;-85
2021/01/10 00:54:55;;;;;;;30.92;18.63;;;;;;;0.95;100.00;102018.66;6274427;22;20049;-85
2021/01/10 00:57:21;;;;;;;32.25;21.73;;;;;;;0.98;100.00;102023.78;6274578;22;20016;-85
2021/01/10 00:59:46;;;;;;;31.80;20.13;;;;;;;0.97;100.00;102021.19;6273289;22;20035;-85
2021/01/10 01:02:12;;;;;;;29.20;19.23;;;;;;;0.98;100.00;102028.19;6273158;22;20027;-85
2021/01/10 01:04:38;;;;;;;31.60;19.00;;;;;;;1.01;100.00;102028.91;6273988;22;20094;-85
2021/01/10 01:07:03;;;;;;;30.65;21.63;;;;;;;1.03;100.00;102036.75;6272734;22;20093;-84
2021/01/10 01:09:29;;;;;;;32.55;21.27;;;;;;;1.02;100.00;102032.41;6274965;22;20022;-85
2021/01/10 01:11:54;;;;;;;36.95;21.55;;;;;;;0.97;100.00;102031.78;6248587;22;20019;-83
2021/01/10 01:14:20;;;;;;;25.50;17.85;;;;;;;0.94;100.00;102031.91;6274857;22;20012;-84
2021/01/10 01:16:45;;;;;;;31.73;19.70;;;;;;;0.93;100.00;102023.13;6276130;22;20016;-84
2021/01/10 01:19:11;;;;;;;26.67;15.57;;;;;;;0.92;100.00;102026.69;6274999;22;20012;-84
2021/01/10 01:21:36;;;;;;;30.40;19.20;;;;;;;0.94;100.00;102031.91;6274790;22;20020;-84
2021/01/10 01:24:02;;;;;;;30.73;18.88;;;;;;;0.95;100.00;102034.50;6300785;22;20012;-84
2021/01/10 01:26:28;;;;;;;29.50;18.13;;;;;;;0.93;100.00;102035.50;6275024;22;20015;-84
2021/01/10 01:28:53;;;;;;;30.58;19.58;;;;;;;0.97;100.00;102032.63;6272776;22;20020;-84
2021/01/10 01:31:21;;;;;;;32.63;20.30;;;;;;;0.97;100.00;102029.97;6273641;22;20076;-84
2021/01/10 01:33:47;;;;;;;33.05;18.95;;;;;;;0.95;100.00;102031.88;6272531;22;20068;-84
2021/01/10 01:36:15;;;;;;;31.63;20.08;;;;;;;0.97;100.00;102037.91;6275209;22;20629;-84
2021/01/10 01:38:42;;;;;;;30.20;19.23;;;;;;;0.93;100.00;102033.72;6272278;22;20019;-83
2021/01/10 01:41:08;;;;;;;29.08;19.85;;;;;;;0.92;100.00;102036.41;6273591;22;20012;-83
2021/01/10 01:43:38;;;;;;;26.92;18.80;;;;;;;0.92;100.00;102039.91;6274931;22;20016;-84
2021/01/10 01:46:09;;;;;;;30.15;18.13;;;;;;;0.90;100.00;102032.06;6296585;22;20020;-84
2021/01/10 01:48:36;;;;;;;29.10;19.55;;;;;;;0.93;100.00;102036.34;6245505;22;20030;-84
2021/01/10 01:51:02;;;;;;;31.60;20.85;;;;;;;0.94;100.00;102042.50;6271194;22;20016;-84
2021/01/10 01:53:28;;;;;;;27.85;20.23;;;;;;;0.92;100.00;102044.34;6274015;22;20011;-83
2021/01/10 01:55:55;;;;;;;33.22;16.67;;;;;;;0.87;100.00;102041.94;6271255;22;20027;-83
2021/01/10 01:58:21;;;;;;;32.97;20.20;;;;;;;0.92;100.00;102039.06;6274161;22;20016;-84
2021/01/10 02:00:47;;;;;;;34.90;21.95;;;;;;;0.93;100.00;102039.00;6273167;22;20012;-84
2021/01/10 02:03:36;;;;;;;23.90;16.80;;;;;;;0.95;100.00;102049.47;6274773;22;20011;-84
2021/01/10 02:06:11;;;;;;;29.45;19.10;;;;;;;0.94;100.00;102047.78;6275044;22;20806;-84
2021/01/10 02:08:37;;;;;;;31.17;18.38;;;;;;;0.89;100.00;102050.63;6274631;22;20020;-84
2021/01/10 02:11:07;;;;;;;25.80;15.15;;;;;;;0.86;100.00;102046.38;6272248;22;20008;-84
2021/01/10 02:13:36;;;;;;;22.75;15.20;;;;;;;0.87;100.00;102047.22;6272429;22;20582;-84
2021/01/10 02:16:02;;;;;;;25.58;17.27;;;;;;;0.87;100.00;102047.22;6271226;22;20322;-83
2021/01/10 02:18:30;;;;;;;25.02;15.32;;;;;;;0.87;100.00;102042.78;6272567;22;20043;-83
2021/01/10 02:21:02;;;;;;;17.67;13.70;;;;;;;0.87;100.00;102048.06;6296178;22;20519;-84
2021/01/10 02:23:30;;;;;;;20.33;12.10;;;;;;;0.86;100.00;102040.19;6274880;22;20019;-84
2021/01/10 02:25:57;;;;;;;18.90;10.80;;;;;;;0.80;100.00;102033.41;6273171;22;20068;-84
2021/01/10 02:28:24;;;;;;;18.98;10.85;;;;;;;0.84;100.00;102037.63;6275101;22;20008;-84
2021/01/10 02:30:52;;;;;;;21.20;11.88;;;;;;;0.84;100.00;102032.34;6274102;22;20016;-83
2021/01/10 02:33:32;;;;;;;19.35;11.32;;;;;;;0.83;100.00;102027.13;6272019;22;20363;-84
2021/01/10 02:35:58;;;;;;;20.85;11.75;;;;;;;0.85;100.00;102026.13;6270926;22;20026;-84
2021/01/10 02:38:44;;;;;;;17.73;10.60;;;;;;;0.83;100.00;102024.47;6272368;22;20073;-83
2021/01/10 02:41:43;;;;;;;18.80;10.90;;;;;;;0.77;100.00;102019.47;6271538;22;20031;-83
2021/01/10 02:44:20;;;;;;;23.35;12.63;;;;;;;0.78;100.00;102027.34;6271662;22;20016;-84
2021/01/10 02:46:49;;;;;;;20.38;12.25;;;;;;;0.79;100.00;102030.84;6272383;22;20016;-83
2021/01/10 02:49:14;;;;;;;18.45;10.20;;;;;;;0.77;100.00;102025.63;6271214;22;20024;-84
2021/01/10 02:51:40;;;;;;;17.75;9.13;;;;;;;0.74;100.00;102020.47;6270931;22;20410;-84
2021/01/10 02:54:05;;;;;;;20.70;10.05;;;;;;;0.80;100.00;102024.63;6247872;22;20019;-84
2021/01/10 02:56:37;;;;;;;13.93;9.10;;;;;;;0.76;100.00;102013.34;6247759;22;20536;-84
2021/01/10 02:59:04;;;;;;;18.75;10.73;;;;;;;0.80;100.00;102019.34;6273230;22;20022;-84
2021/01/10 03:01:30;;;;;;;17.13;9.68;;;;;;;0.73;100.00;102010.84;6273488;22;20060;-83
2021/01/10 03:03:55;;;;;;;21.40;11.15;;;;;;;0.77;100.00;102012.41;6298127;22;20024;-83
2021/01/10 03:06:22;;;;;;;22.42;13.45;;;;;;;0.78;100.00;102006.22;6273967;22;20022;-83
2021/01/10 03:08:51;;;;;;;19.30;12.43;;;;;;;0.77;100.00;102006.28;6271577;22;20016;-84
2021/01/10 03:11:17;;;;;;;;;;;;;;;0.75;100.00;102000.19;6274448;22;20456;-84
2021/01/10 03:13:42;;;;;;;19.95;10.35;;;;;;;0.62;100.00;101997.28;6274771;22;19918;-84
2021/01/10 03:16:08;;;;;;;16.13;9.75;;;;;;;0.60;100.00;101999.97;6248741;22;20011;-84
2021/01/10 03:18:34;;;;;;;24.63;11.93;;;;;;;0.66;100.00;101997.06;6276472;22;20020;-84
2021/01/10 03:20:59;;;;;;;19.33;10.88;;;;;;;0.67;100.00;101996.13;6274581;22;20097;-84
2021/01/10 03:23:25;;;;;;;18.50;10.82;;;;;;;0.64;100.00;101998.06;6198356;22;20049;-84
2021/01/10 03:25:50;;;;;;;20.38;11.45;;;;;;;0.60;100.00;101999.97;6220855;22;20727;-83
2021/01/10 03:28:15;;;;;;;20.25;11.43;;;;;;;0.55;100.00;102002.00;6274497;22;20020;-84
2021/01/10 03:30:41;;;;;;;17.92;11.57;;;;;;;0.61;100.00;101998.22;6220675;22;20022;-84
2021/01/10 03:33:06;;;;;;;18.05;10.82;;;;;;;0.57;100.00;101996.63;6223031;22;20048;-83
2021/01/10 03:35:34;;;;;;;18.17;12.02;;;;;;;0.57;100.00;101992.19;6247563;22;20495;-84
2021/01/10 03:38:02;;;;;;;18.80;11.98;;;;;;;0.53;100.00;102003.84;6197706;22;20019;-84
2021/01/10 03:40:27;;;;;;;20.45;10.90;;;;;;;0.53;100.00;101997.69;6275040;22;20015;-84
2021/01/10 03:42:53;;;;;;;21.85;11.68;;;;;;;0.51;100.00;101991.63;6245964;22;20483;-84
2021/01/10 03:45:18;;;;;;;23.35;11.13;;;;;;;0.48;100.00;102000.53;6247848;22;20018;-84
2021/01/10 03:47:44;;;;;;;18.92;11.07;;;;;;;0.40;100.00;102000.91;6274898;22;20023;-84
2021/01/10 03:50:10;;;;;;;19.00;10.45;;;;;;;0.35;100.00;101994.13;6247526;22;20444;-84
2021/01/10 03:52:36;;;;;;;21.58;9.60;;;;;;;0.32;100.00;101997.75;6223285;22;20020;-84
2021/01/10 03:55:02;;;;;;;20.48;10.32;;;;;;;0.29;100.00;101994.38;6222517;22;20175;-84
2021/01/10 03:57:27;;;;;;;20.20;11.43;;;;;;;0.31;100.00;101993.38;6250005;22;20016;-84
2021/01/10 03:59:53;;;;;;;22.73;10.65;;;;;;;0.26;100.00;101994.50;6275231;22;20016;-84
2021/01/10 04:02:18;;;;;;;17.83;10.70;;;;;;;0.22;100.00;101993.78;6248239;22;20043;-83
2021/01/10 04:04:43;;;;;;;15.25;9.75;;;;;;;0.13;100.00;101997.69;6248168;22;20019;-84
2021/01/10 04:07:09;;;;;;;21.20;11.98;;;;;;;0.17;100.00;101996.66;6248407;22;20016;-84
2021/01/10 04:09:35;;;;;;;17.05;9.80;;;;;;;0.07;100.00;101994.47;6247928;22;20019;-84
2021/01/10 04:12:01;;;;;;;19.77;10.75;;;;;;;0.06;100.00;101996.28;6273699;22;20015;-84
2021/01/10 04:14:26;;;;;;;15.15;10.55;;;;;;;0.06;100.00;101996.28;6262445;22;20035;-84
2021/01/10 04:16:53;;;;;;;19.02;11.18;;;;;;;-0.03;100.00;101996.66;6246913;22;20019;-84
2021/01/10 04:19:19;;;;;;;22.60;11.43;;;;;;;-0.02;100.00;101993.09;6272900;22;20099;-84
2021/01/10 04:21:45;;;;;;;19.60;12.07;;;;;;;-0.07;100.00;101990.66;6275447;22;20026;-84
2021/01/10 04:24:10;;;;;;;18.85;12.13;;;;;;;-0.22;100.00;101995.75;6275945;22;20019;-83
2021/01/10 04:26:47;;;;;;;23.55;13.98;;;;;;;-0.13;100.00;101990.06;6276108;22;20012;-84
2021/01/10 04:29:13;;;;;;;20.40;11.27;;;;;;;-0.24;100.00;101994.00;6275740;22;20008;-84
2021/01/10 04:31:39;;;;;;;21.98;11.48;;;;;;;-0.20;100.00;101989.47;6274206;22;20023;-84
2021/01/10 04:34:05;;;;;;;22.30;12.65;;;;;;;-0.18;100.00;101992.88;6274246;22;20020;-84
2021/01/10 04:36:30;;;;;;;21.02;13.00;;;;;;;-0.18;100.00;101997.31;6274359;22;20016;-84
2021/01/10 04:38:57;;;;;;;19.35;12.98;;;;;;;-0.27;100.00;101994.16;6298727;22;20008;-84
2021/01/10 04:41:24;;;;;;;22.33;12.98;;;;;;;-0.21;100.00;101997.44;6276047;22;20012;-84
2021/01/10 04:43:50;;;;;;;20.50;12.55;;;;;;;-0.24;100.00;101991.38;6247881;22;20099;-84
2021/01/10 04:46:16;;;;;;;19.85;12.50;;;;;;;-0.25;100.00;101989.66;6276886;22;20015;-84
2021/01/10 04:48:42;;;;;;;27.15;14.07;;;;;;;-0.28;100.00;101987.16;6299020;22;20035;-84
2021/01/10 04:51:13;;;;;;;19.65;14.07;;;;;;;-0.37;100.00;101981.44;6274131;22;20047;-84
2021/01/10 04:53:42;;;;;;;22.45;13.63;;;;;;;-0.36;100.00;101988.41;6275145;22;20061;-84
2021/01/10 04:56:09;;;;;;;19.23;13.68;;;;;;;-0.38;100.00;101993.72;6247290;22;20099;-84
2021/01/10 04:58:36;;;;;;;24.27;14.82;;;;;;;-0.46;100.00;101987.94;6299851;22;20016;-84
2021/01/10 05:01:02;;;;;;;21.25;15.07;;;;;;;-0.37;100.00;101990.19;6273858;22;20027;-83
2021/01/10 05:03:30;;;;;;;22.42;14.32;;;;;;;-0.49;100.00;101988.03;6276228;22;20019;-84
2021/01/10 05:05:56;;;;;;;28.00;16.17;;;;;;;-0.44;100.00;101986.09;6273421;22;20008;-84
2021/01/10 05:08:22;;;;;;;24.35;16.45;;;;;;;-0.53;100.00;101986.47;6299452;22;20567;-84
2021/01/10 05:10:47;;;;;;;24.50;17.20;;;;;;;-0.53;100.00;101981.19;6299718;22;20015;-84
2021/01/10 05:13:13;;;;;;;30.77;18.80;;;;;;;-0.51;100.00;101976.72;6276981;22;20020;-84
2021/01/10 05:15:38;;;;;;;26.95;18.15;;;;;;;-0.62;100.00;101982.44;6275995;22;20116;-84
2021/01/10 05:18:04;;;;;;;31.85;19.13;;;;;;;-0.64;100.00;101972.88;6275846;22;20011;-83
2021/01/10 05:20:31;;;;;;;26.90;18.73;;;;;;;-0.57;100.00;101971.72;6274796;22;20011;-84
2021/01/10 05:23:00;;;;;;;33.20;21.70;;;;;;;-0.63;100.00;101974.56;6275633;22;20031;-84
2021/01/10 05:25:29;;;;;;;;;;;;;;;-0.63;100.00;101971.94;6250018;22;20511;-84
2021/01/10 05:27:56;;;;;;;30.90;20.27;;;;;;;-0.70;100.00;101969.56;6275193;22;19968;-84
2021/01/10 05:30:28;;;;;;;31.15;22.52;;;;;;;-0.72;100.00;101971.44;6277064;22;20012;-84
2021/01/10 05:33:04;;;;;;;31.73;23.50;;;;;;;-0.71;100.00;101967.84;6249056;22;20070;-84
2021/01/10 05:35:47;;;;;;;38.03;24.02;;;;;;;-0.66;100.00;101974.72;6277926;22;20011;-84
2021/01/10 05:38:24;;;;;;;33.72;24.00;;;;;;;-0.74;100.00;101968.00;6249223;22;20026;-84
2021/01/10 05:40:53;;;;;;;32.22;23.05;;;;;;;-0.73;100.00;101972.31;6276095;22;20016;-84
2021/01/10 05:43:18;;;;;;;39.50;27.63;;;;;;;-0.78;100.00;101971.66;6278796;22;20012;-84
2021/01/10 05:45:44;;;;;;;42.17;28.25;;;;;;;-0.71;100.00;101965.22;6277184;22;20024;-84
2021/01/10 05:48:14;;;;;;;41.10;27.08;;;;;;;-0.75;100.00;101963.66;6252399;22;20527;-84
2021/01/10 05:50:48;;;;;;;39.75;28.85;;;;;;;-0.81;100.00;101973.56;6278712;22;20011;-84
2021/01/10 05:53:14;;;;;;;41.20;28.67;;;;;;;-0.81;100.00;101976.19;6279650;22;20023;-84
2021/01/10 05:56:00;;;;;;;45.83;32.28;;;;;;;-0.85;100.00;101974.63;6253004;22;20023;-84
2021/01/10 05:58:30;;;;;;;39.75;29.77;;;;;;;-0.87;100.00;101981.72;6300611;22;20026;-84
2021/01/10 06:01:00;;;;;;;39.45;29.45;;;;;;;-0.97;100.00;101982.09;6279115;22;20050;-84
2021/01/10 06:03:31;;;;;;;39.88;29.92;;;;;;;-0.96;100.00;101981.16;6283956;22;20011;-83
2021/01/10 06:06:00;;;;;;;41.75;29.90;;;;;;;-1.01;100.00;101979.63;6257011;22;20079;-83
2021/01/10 06:08:33;;;;;;;39.95;28.15;;;;;;;-1.03;100.00;101979.72;6283305;22;20019;-83
2021/01/10 06:11:16;;;;;;;46.55;29.45;;;;;;;-1.09;100.00;101986.97;6251846;22;20428;-83
2021/01/10 06:13:52;;;;;;;40.20;29.50;;;;;;;-1.13;100.00;101989.72;6277024;22;20023;-83
2021/01/10 06:16:18;;;;;;;39.53;27.27;;;;;;;-1.20;100.00;101990.91;6251232;22;20090;-82
2021/01/10 06:18:56;;;;;;;38.17;28.75;;;;;;;-1.27;100.00;101984.13;6249464;22;20022;-82
2021/01/10 06:21:25;;;;;;;52.70;31.17;;;;;;;-1.18;100.00;101994.34;6278807;22;20019;-82
2021/01/10 06:23:53;;;;;;;47.83;33.42;;;;;;;-1.19;100.00;101987.34;6251078;22;20047;-83
2021/01/10 06:26:20;;;;;;;44.47;32.38;;;;;;;-1.20;100.00;101998.81;6278337;22;20016;-83
2021/01/10 06:29:00;;;;;;;43.72;32.67;;;;;;;-1.20;100.00;102000.59;6250610;22;20022;-82
2021/01/10 06:31:37;;;;;;;45.08;31.92;;;;;;;-1.13;100.00;102009.94;6281066;22;20066;-83
2021/01/10 06:34:07;;;;;;;45.38;31.73;;;;;;;-1.17;100.00;102006.59;6279860;22;20035;-83
2021/01/10 06:36:35;;;;;;;49.45;32.95;;;;;;;-1.20;100.00;102000.59;6280057;22;20012;-83
2021/01/10 06:39:12;;;;;;;40.47;31.95;;;;;;;-1.17;100.00;101997.81;6279742;22;20015;-82
2021/01/10 06:41:52;;;;;;;46.67;34.15;;;;;;;-1.14;100.00;102003.81;6254226;22;20015;-83
2021/01/10 06:44:20;;;;;;;45.97;34.35;;;;;;;-1.14;100.00;102005.59;6307401;22;20020;-83
2021/01/10 06:46:53;;;;;;;49.67;36.10;;;;;;;-1.13;100.00;102008.16;6281136;22;20026;-82
2021/01/10 06:49:19;;;;;;;47.13;33.63;;;;;;;-1.14;100.00;102009.09;6281327;22;20023;-82
2021/01/10 06:51:46;;;;;;;47.90;35.08;;;;;;;-1.09;100.00;102003.66;6280530;22;20039;-83
2021/01/10 06:54:12;;;;;;;51.15;33.97;;;;;;;-1.14;100.00;101995.94;6255037;22;20012;-83
2021/01/10 06:56:38;;;;;;;46.92;34.05;;;;;;;-1.14;100.00;102003.81;6280562;22;20015;-83
2021/01/10 06:59:08;;;;;;;49.90;34.20;;;;;;;-1.15;100.00;101999.50;6286972;22;20020;-84
2021/01/10 07:01:57;;;;;;;51.17;36.08;;;;;;;-1.09;100.00;102001.03;6235121;22;20016;-82
2021/01/10 07:04:54;;;;;;;61.75;42.13;;;;;;;-1.07;100.00;101996.53;6229357;22;20075;-82
2021/01/10 07:07:39;;;;;;;52.20;40.15;;;;;;;-1.04;100.00;101987.66;6300003;22;20041;-83
2021/01/10 07:10:07;;;;;;;53.47;37.45;;;;;;;-1.08;100.00;102000.09;6226874;22;20015;-82
2021/01/10 07:12:36;;;;;;;55.22;41.28;;;;;;;-1.02;100.00;101994.59;6280679;22;20026;-82
2021/01/10 07:15:17;;;;;;;53.70;39.80;;;;;;;-1.00;100.00;102003.28;6272023;22;20467;-83
2021/01/10 07:18:00;;;;;;;56.30;42.10;;;;;;;-0.94;100.00;101997.78;6272375;22;20019;-83
2021/01/10 07:20:37;;;;;;;56.30;41.63;;;;;;;-0.91;100.00;101996.81;6296373;22;20020;-83
2021/01/10 07:23:24;;;;;;;56.08;40.33;;;;;;;-0.92;100.00;102000.38;6272672;22;20035;-83
2021/01/10 07:25:49;;;;;;;58.08;42.50;;;;;;;-0.87;100.00;102001.03;6269932;22;20023;-83
2021/01/10 07:28:33;;;;;;;55.85;39.30;;;;;;;-0.84;100.00;102007.94;6220786;22;20376;-84
2021/01/10 07:31:18;;;;;;;57.90;39.03;;;;;;;-0.84;100.00;101998.25;6246339;22;20012;-84
2021/01/10 07:33:45;;;;;;;57.55;40.65;;;;;;;-0.81;100.00;101997.28;6274795;22;20116;-84
2021/01/10 07:36:11;;;;;;;60.28;43.25;;;;;;;-0.77;100.00;101996.25;6274024;22;20015;-84
2021/01/10 07:38:38;;;;;;;55.85;40.42;;;;;;;-0.76;100.00;102001.44;6274034;22;20174;-84
2021/01/10 07:41:27;;;;;;;54.95;40.95;;;;;;;-0.72;100.00;101997.78;6274098;22;20242;-83
2021/01/10 07:43:55;;;;;;;59.15;41.22;;;;;;;-0.77;100.00;102001.53;6273152;22;20098;-85
2021/01/10 07:46:50;;;;;;;61.72;41.25;;;;;;;-0.76;100.00;101998.81;6274964;22;20031;-86
2021/01/10 07:49:23;;;;;;;61.33;42.00;;;;;;;-0.74;100.00;102004.03;6264956;22;20019;-84
2021/01/10 07:51:48;;;;;;;58.90;40.92;;;;;;;-0.75;100.00;102005.81;6273276;22;20047;-87
2021/01/10 07:54:15;;;;;;;58.15;38.15;;;;;;;-0.74;100.00;102007.53;6247677;22;20286;-83
2021/01/10 07:56:41;;;;;;;62.60;40.80;;;;;;;-0.73;100.00;102003.09;6247154;22;20015;-84
2021/01/10 07:59:13;;;;;;;59.10;42.13;;;;;;;-0.65;100.00;102002.81;6221095;22;20628;-84
2021/01/10 08:01:51;;;;;;;57.72;40.72;;;;;;;-0.66;100.00;102007.22;6273701;22;20016;-85
2021/01/10 08:04:33;;;;;;;53.42;35.97;;;;;;;-0.65;100.00;102010.72;6245640;22;20019;-83
2021/01/10 08:06:59;;;;;;;56.28;40.88;;;;;;;-0.64;100.00;102020.34;6273567;22;20082;-83
2021/01/10 08:09:32;;;;;;;60.38;42.70;;;;;;;-0.61;100.00;102018.41;6247619;22;20145;-83
2021/01/10 08:12:01;;;;;;;58.47;43.85;;;;;;;-0.58;100.00;102020.06;6247748;22;20045;-83
2021/01/10 08:14:27;;;;;;;56.17;40.00;;;;;;;-0.58;100.00;102020.94;6274613;22;20019;-83
2021/01/10 08:16:52;;;;;;;58.95;45.42;;;;;;;-0.52;100.00;102025.09;6246734;22;20057;-83
2021/01/10 08:19:18;;;;;;;59.50;40.60;;;;;;;-0.57;100.00;102014.75;6247509;22;20019;-84
2021/01/10 08:21:44;;;;;;;58.47;43.30;;;;;;;-0.51;100.00;102021.56;6247786;22;20023;-83
2021/01/10 08:24:10;;;;;;;59.60;44.42;;;;;;;-0.50;100.00;102018.00;6273288;22;20019;-83
2021/01/10 08:26:45;;;;;;;59.85;42.20;;;;;;;-0.51;100.00;102021.56;6247809;22;20027;-83
2021/01/10 08:29:10;;;;;;;62.88;43.55;;;;;;;-0.52;100.00;102023.34;6273397;22;20020;-83
2021/01/10 08:31:37;;;;;;;55.10;41.70;;;;;;;-0.52;100.00;102019.81;6220789;22;20495;-83
2021/01/10 08:34:09;;;;;;;62.88;47.60;;;;;;;-0.49;100.00;102028.50;6273322;22;20044;-83
2021/01/10 08:36:36;;;;;;;70.85;51.60;;;;;;;-0.46;100.00;102031.00;6247888;22;20019;-83
2021/01/10 08:39:07;;;;;;;67.47;49.80;;;;;;;-0.45;100.00;102026.56;6273366;22;20023;-83
2021/01/10 08:41:33;;;;;;;55.28;43.28;;;;;;;-0.53;100.00;102029.53;6246793;22;20016;-84
2021/01/10 08:44:10;;;;;;;56.53;42.35;;;;;;;-0.48;100.00;102026.72;6246398;22;20343;-83
2021/01/10 08:46:38;;;;;;;60.53;45.20;;;;;;;-0.51;100.00;102026.84;6246618;22;20016;-84
2021/01/10 08:49:04;;;;;;;56.97;41.78;;;;;;;-0.49;100.00;102024.97;6245531;22;20012;-84
2021/01/10 08:51:36;;;;;;;58.90;46.22;;;;;;;-0.48;100.00;102027.56;6268863;22;20092;-83
2021/01/10 08:54:12;;;;;;;61.55;42.63;;;;;;;-0.54;100.00;102027.81;6245144;22;20149;-84
2021/01/10 08:56:39;;;;;;;67.28;49.22;;;;;;;-0.54;100.00;102037.50;6244429;22;20015;-83
2021/01/10 08:59:05;;;;;;;62.45;49.33;;;;;;;-0.50;100.00;102042.56;6268751;22;20023;-84
2021/01/10 09:01:31;;;;;;;56.13;46.22;;;;;;;-0.45;100.00;102042.41;6269844;22;20044;-84
2021/01/10 09:04:06;;;;;;;59.53;46.75;;;;;;;-0.43;100.00;102037.94;6268866;22;20571;-84
2021/01/10 09:06:34;;;;;;;58.03;43.65;;;;;;;-0.48;100.00;102038.09;6269902;22;20016;-84
2021/01/10 09:09:09;;;;;;;61.90;45.80;;;;;;;-0.43;100.00;102037.94;6268814;22;20456;-83
2021/01/10 09:11:37;;;;;;;54.75;40.47;;;;;;;-0.42;100.00;102039.63;6244170;22;20032;-84
2021/01/10 09:14:06;;;;;;;58.15;43.50;;;;;;;-0.42;100.00;102042.28;6254880;22;20046;-84
2021/01/10 09:16:36;;;;;;;66.07;44.50;;;;;;;-0.43;100.00;102042.31;6268982;22;20076;-84
2021/01/10 09:19:02;;;;;;;60.30;42.35;;;;;;;-0.41;100.00;102036.06;6267373;22;20015;-83
2021/01/10 09:21:28;;;;;;;54.80;41.08;;;;;;;-0.40;100.00;102042.19;6268979;22;20031;-83
2021/01/10 09:23:56;;;;;;;55.58;42.53;;;;;;;-0.37;100.00;102039.47;6268213;22;20027;-83
2021/01/10 09:26:32;;;;;;;56.38;42.75;;;;;;;-0.31;100.00;102045.31;6270456;22;20085;-84
2021/01/10 09:28:59;;;;;;;53.15;34.15;;;;;;;-0.36;100.00;102044.66;6269127;22;20011;-84
2021/01/10 09:31:42;;;;;;;54.17;43.88;;;;;;;-0.32;100.00;102043.59;6294664;22;20007;-84
2021/01/10 09:34:08;;;;;;;55.15;42.05;;;;;;;-0.33;100.00;102041.03;6268225;22;20091;-84
2021/01/10 09:36:33;;;;;;;58.00;41.58;;;;;;;-0.32;100.00;102053.28;6270248;22;20031;-83
2021/01/10 09:38:59;;;;;;;60.17;42.75;;;;;;;-0.28;100.00;102039.94;6292531;22;20016;-84
2021/01/10 09:41:25;;;;;;;62.58;48.67;;;;;;;-0.20;100.00;102046.66;6270185;22;20031;-84
2021/01/10 09:43:52;;;;;;;57.50;43.53;;;;;;;-0.23;100.00;102052.94;6267243;22;20020;-84
2021/01/10 09:46:28;;;;;;;56.75;41.65;;;;;;;-0.22;100.00;102057.28;6293188;22;20061;-84
2021/01/10 09:48:59;;;;;;;59.30;43.25;;;;;;;-0.24;100.00;102061.75;6266143;22;20015;-83
2021/01/10 09:51:24;;;;;;;59.53;46.90;;;;;;;-0.19;100.00;102059.78;6269654;22;20023;-84
2021/01/10 09:53:50;;;;;;;60.42;42.45;;;;;;;-0.17;100.00;102051.78;6268826;22;20368;-83
2021/01/10 09:56:37;;;;;;;62.67;47.33;;;;;;;-0.13;100.00;102058.69;6268263;22;20440;-83
2021/01/10 09:59:03;;;;;;;55.90;39.42;;;;;;;-0.16;100.00;102061.44;6270054;22;20018;-84
2021/01/10 10:01:38;;;;;;;64.70;42.63;;;;;;;-0.13;100.00;102061.31;6268547;22;20020;-84
2021/01/10 10:04:04;;;;;;;54.72;38.92;;;;;;;-0.15;100.00;102055.22;6266712;22;20016;-84
2021/01/10 10:06:48;;;;;;;65.70;46.72;;;;;;;-0.08;100.00;102057.56;6243500;22;20022;-84
2021/01/10 10:09:13;;;;;;;62.30;43.25;;;;;;;-0.10;100.00;102056.75;6295570;22;20042;-83
2021/01/10 10:11:38;;;;;;;59.20;41.28;;;;;;;-0.12;100.00;102057.75;6267565;22;20020;-84
2021/01/10 10:14:04;;;;;;;59.10;40.03;;;;;;;-0.07;100.00;102054.00;6268732;22;20102;-85
2021/01/10 10:16:30;;;;;;;63.97;46.70;;;;;;;-0.02;100.00;102051.16;6242795;22;20483;-84
2021/01/10 10:18:57;;;;;;;68.93;50.92;;;;;;;0.02;100.00;102047.47;6241944;22;20016;-85
2021/01/10 10:21:23;;;;;;;56.53;41.60;;;;;;;0.02;100.00;102047.47;6269298;22;20488;-84
2021/01/10 10:23:49;;;;;;;64.05;41.70;;;;;;;0.05;100.00;102044.69;6243580;22;20020;-84
2021/01/10 10:26:14;;;;;;;63.08;41.85;;;;;;;0.06;100.00;102041.13;6246265;22;20086;-84
2021/01/10 10:28:39;;;;;;;58.53;42.10;;;;;;;0.11;100.00;102043.56;6246610;22;20012;-84
2021/01/10 10:31:05;;;;;;;55.33;39.60;;;;;;;0.13;100.00;102045.22;6273470;22;20015;-85
2021/01/10 10:33:30;;;;;;;60.08;37.22;;;;;;;0.17;100.00;102038.91;6246028;22;20012;-84
2021/01/10 10:35:57;;;;;;;51.83;32.50;;;;;;;0.20;100.00;102033.47;6220476;22;20022;-83
2021/01/10 10:38:22;;;;;;;55.25;39.70;;;;;;;0.27;100.00;102035.84;6246423;22;20016;-84
2021/01/10 10:40:48;;;;;;;52.38;33.30;;;;;;;0.25;100.00;102027.13;6272805;22;20016;-85
2021/01/10 10:43:13;;;;;;;51.10;37.63;;;;;;;0.29;100.00;102033.97;6271901;22;20019;-84
2021/01/10 10:45:38;;;;;;;47.83;32.35;;;;;;;0.28;100.00;102021.72;6245789;22;20103;-84
2021/01/10 10:48:04;;;;;;;49.45;32.28;;;;;;;0.29;100.00;102018.13;6244961;22;20051;-84
2021/01/10 10:50:30;;;;;;;48.20;33.88;;;;;;;0.33;100.00;102028.50;6245835;22;20829;-84
2021/01/10 10:52:56;;;;;;;44.78;30.90;;;;;;;0.35;100.00;102023.16;6272057;22;20073;-84
2021/01/10 10:55:22;;;;;;;48.92;31.77;;;;;;;0.40;100.00;102026.44;6244628;22;20019;-83
2021/01/10 10:57:47;;;;;;;51.95;36.08;;;;;;;0.46;100.00;102015.59;6272334;22;20046;-84
2021/01/10 11:00:13;;;;;;;53.28;37.65;;;;;;;0.50;100.00;102025.13;6247004;22;20575;-84
2021/01/10 11:02:39;;;;;;;44.22;27.08;;;;;;;0.47;100.00;102022.59;6275739;22;20027;-85
2021/01/10 11:05:06;;;;;;;43.38;31.83;;;;;;;0.53;100.00;102019.69;6221398;22;20016;-84
2021/01/10 11:07:33;;;;;;;46.13;30.67;;;;;;;0.54;100.00;102016.09;6273337;22;20015;-85
2021/01/10 11:09:59;;;;;;;43.60;29.58;;;;;;;0.55;100.00;102009.91;6220475;22;20018;-83
2021/01/10 11:12:25;;;;;;;48.28;33.20;;;;;;;0.66;100.00;102002.34;6221605;22;20024;-83
2021/01/10 11:14:50;;;;;;;47.45;33.50;;;;;;;0.67;100.00;102011.13;6273228;22;20020;-84